Time,TemperatureF,DewpointF,PressureIn,WindDirection,WindDirectionDegrees,WindSpeedMPH,WindSpeedGustMPH,Humidity,HourlyPrecipIn,Conditions,Clouds,dailyrainin,SoftwareType,DateUTC
2013-11-29 00:04:00,26.1,9.9,30.47,NE,47,0.0,0.0,50,0.00,CLR,CLR,0.00,WeatherDisplay:10.36,2013-11-29 06:04:00,
2013-11-29 00:09:00,26.1,9.9,30.47,NE,47,0.0,0.0,50,0.00,CLR,CLR,0.00,WeatherDisplay:10.36,2013-11-29 06:09:00,
2013-11-29 00:14:00,25.9,9.8,30.47,NE,46,0.0,0.0,50,0.00,CLR,CLR,0.00,WeatherDisplay:10.36,2013-11-29 06:14:00,
2013-11-29 00:19:00,25.7,10.0,30.44,NE,47,0.0,0.0,51,0.00,CLR,CLR,0.00,WeatherDisplay:10.36,2013-11-29 06:19:00,
2013-11-29 00:24:00,25.7,10.0,30.44,NE,47,0.0,0.0,51,0.00,CLR,CLR,0.00,WeatherDisplay:10.36,2013-11-29 06:24:00,
2013-11-29 00:29:00,25.7,10.0,30.44,NE,47,0.0,0.0,51,0.00,CLR,CLR,0.00,WeatherDisplay:10.36,2013-11-29 06:29:00,
2013-11-29 00:34:00,25.5,9.9,30.44,NE,46,0.0,0.0,51,0.00,CLR,CLR,0.00,WeatherDisplay:10.36,2013-11-29 06:34:00,
2013-11-29 00:39:00,25.5,10.3,30.44,NE,46,0.0,0.0,52,0.00,CLR,CLR,0.00,WeatherDisplay:10.36,2013-11-29 06:39:00,
2013-11-29 00:44:00,25.3,10.1,30.44,NE,46,0.0,0.0,52,0.00,CLR,CLR,0.00,WeatherDisplay:10.36,2013-11-29 06:44:00,
2013-11-29 00:49:00,25.3,10.1,30.47,NE,47,0.0,0.0,52,0.00,CLR,CLR,0.00,WeatherDisplay:10.36,2013-11-29 06:49:00,
2013-11-29 00:54:00,25.2,10.0,30.47,NE,46,0.0,0.0,52,0.00,CLR,CLR,0.00,WeatherDisplay:10.36,2013-11-29 06:54:00,
2013-11-29 00:59:00,25.0,9.8,30.47,NE,47,0.0,0.0,52,0.00,CLR,CLR,0.00,WeatherDisplay:10.36,2013-11-29 06:59:00,
2013-11-29 01:04:00,25.0,9.8,30.47,NE,47,0.0,0.0,52,0.00,CLR,CLR,0.00,WeatherDisplay:10.36,2013-11-29 07:04:00,
2013-11-29 01:09:00,24.8,9.6,30.47,NE,47,0.0,0.0,52,0.00,CLR,CLR,0.00,WeatherDisplay:10.36,2013-11-29 07:09:00,
2013-11-29 01:14:00,24.6,9.5,30.47,NE,46,0.0,0.0,52,0.00,CLR,CLR,0.00,WeatherDisplay:10.36,2013-11-29 07:14:00,
2013-11-29 01:19:00,24.6,9.9,30.47,NE,46,0.0,0.0,53,0.00,CLR,CLR,0.00,WeatherDisplay:10.36,2013-11-29 07:19:00,
2013-11-29 01:24:00,24.8,10.1,30.47,NE,47,0.0,0.0,53,0.00,CLR,CLR,0.00,WeatherDisplay:10.36,2013-11-29 07:24:00,
2013-11-29 01:29:00,24.8,10.1,30.47,NE,47,0.0,0.0,53,0.00,CLR,CLR,0.00,WeatherDisplay:10.36,2013-11-29 07:29:00,
2013-11-29 01:34:00,24.6,9.9,30.47,NE,47,0.0,0.0,53,0.00,CLR,CLR,0.00,WeatherDisplay:10.36,2013-11-29 07:34:00,
2013-11-29 01:39:00,24.4,9.7,30.47,NE,46,0.0,0.0,53,0.00,CLR,CLR,0.00,WeatherDisplay:10.36,2013-11-29 07:39:00,
2013-11-29 01:44:00,24.3,9.6,30.47,NE,46,0.0,0.0,53,0.00,CLR,CLR,0.00,WeatherDisplay:10.36,2013-11-29 07:44:00,
2013-11-29 01:49:00,24.1,9.4,30.47,NE,46,0.0,0.0,53,0.00,CLR,CLR,0.00,WeatherDisplay:10.36,2013-11-29 07:49:00,
2013-11-29 01:54:00,24.1,9.4,30.47,NE,47,0.0,0.0,53,0.00,CLR,CLR,0.00,WeatherDisplay:10.36,2013-11-29 07:54:00,
2013-11-29 01:59:00,23.9,9.6,30.47,NE,46,0.0,0.0,54,0.00,CLR,CLR,0.00,WeatherDisplay:10.36,2013-11-29 07:59:00,
2013-11-29 02:04:00,23.9,9.6,30.47,NE,46,0.0,0.0,54,0.00,CLR,CLR,0.00,WeatherDisplay:10.36,2013-11-29 08:04:00,
2013-11-29 02:09:00,23.7,9.5,30.47,NE,46,0.0,0.0,54,0.00,CLR,CLR,0.00,WeatherDisplay:10.36,2013-11-29 08:09:00,
2013-11-29 02:14:00,23.7,9.5,30.47,NE,46,0.0,0.0,54,0.00,CLR,CLR,0.00,WeatherDisplay:10.36,2013-11-29 08:14:00,
2013-11-29 02:19:00,23.5,9.3,30.47,NE,47,0.0,0.0,54,0.00,CLR,CLR,0.00,WeatherDisplay:10.36,2013-11-29 08:19:00,
2013-11-29 02:24:00,23.5,9.3,30.47,NE,47,0.0,0.0,54,0.00,CLR,CLR,0.00,WeatherDisplay:10.36,2013-11-29 08:24:00,
2013-11-29 02:29:00,23.4,9.6,30.47,NE,47,0.0,0.0,55,0.00,CLR,CLR,0.00,WeatherDisplay:10.36,2013-11-29 08:29:00,
2013-11-29 02:34:00,23.4,9.6,30.47,NE,47,0.0,0.0,55,0.00,CLR,CLR,0.00,WeatherDisplay:10.36,2013-11-29 08:34:00,
2013-11-29 02:39:00,23.4,9.6,30.47,NE,47,0.0,0.0,55,0.00,CLR,CLR,0.00,WeatherDisplay:10.36,2013-11-29 08:39:00,
2013-11-29 02:44:00,23.4,9.6,30.47,NE,47,0.0,0.0,55,0.00,CLR,CLR,0.00,WeatherDisplay:10.36,2013-11-29 08:44:00,
2013-11-29 02:49:00,23.2,9.4,30.50,NE,47,0.0,0.0,55,0.00,CLR,CLR,0.00,WeatherDisplay:10.36,2013-11-29 08:49:00,
2013-11-29 02:54:00,23.4,10.0,30.50,NE,46,0.0,0.0,56,0.00,CLR,CLR,0.00,WeatherDisplay:10.36,2013-11-29 08:54:00,
2013-11-29 02:59:00,23.4,10.0,30.50,NE,46,0.0,0.0,56,0.00,CLR,CLR,0.00,WeatherDisplay:10.36,2013-11-29 08:59:00,
2013-11-29 03:04:00,23.2,9.8,30.50,NE,46,0.0,0.0,56,0.00,CLR,CLR,0.00,WeatherDisplay:10.36,2013-11-29 09:04:00,
2013-11-29 03:09:00,23.0,9.6,30.50,NE,46,0.0,0.0,56,0.00,CLR,CLR,0.00,WeatherDisplay:10.36,2013-11-29 09:09:00,
2013-11-29 03:14:00,22.8,9.4,30.50,NE,47,0.0,0.0,56,0.00,CLR,CLR,0.00,WeatherDisplay:10.36,2013-11-29 09:14:00,
2013-11-29 03:19:00,22.6,9.3,30.50,NE,48,0.0,0.0,56,0.00,CLR,CLR,0.00,WeatherDisplay:10.36,2013-11-29 09:19:00,
2013-11-29 03:24:00,22.6,9.3,30.50,NE,47,0.0,0.0,56,0.00,CLR,CLR,0.00,WeatherDisplay:10.36,2013-11-29 09:24:00,
2013-11-29 03:29:00,22.6,9.3,30.50,NE,47,0.0,0.0,56,0.00,CLR,CLR,0.00,WeatherDisplay:10.36,2013-11-29 09:29:00,
2013-11-29 03:34:00,22.6,9.7,30.47,NE,47,0.0,0.0,57,0.00,CLR,CLR,0.00,WeatherDisplay:10.36,2013-11-29 09:34:00,
2013-11-29 03:39:00,22.6,9.7,30.47,NE,47,0.0,0.0,57,0.00,CLR,CLR,0.00,WeatherDisplay:10.36,2013-11-29 09:39:00,
2013-11-29 03:44:00,22.5,9.5,30.47,NE,47,0.0,0.0,57,0.00,CLR,CLR,0.00,WeatherDisplay:10.36,2013-11-29 09:44:00,
2013-11-29 03:49:00,22.3,9.3,30.47,NE,47,0.0,0.0,57,0.00,CLR,CLR,0.00,WeatherDisplay:10.36,2013-11-29 09:49:00,
2013-11-29 03:54:00,22.1,9.2,30.50,NE,47,0.0,0.0,57,0.00,CLR,CLR,0.00,WeatherDisplay:10.36,2013-11-29 09:54:00,
2013-11-29 03:59:00,21.9,9.0,30.50,NE,47,0.0,0.0,57,0.00,CLR,CLR,0.00,WeatherDisplay:10.36,2013-11-29 09:59:00,
2013-11-29 04:04:00,21.9,9.4,30.50,NE,46,0.0,0.0,58,0.00,CLR,CLR,0.00,WeatherDisplay:10.36,2013-11-29 10:04:00,
2013-11-29 04:09:00,21.7,9.2,30.50,NE,48,0.0,0.0,58,0.00,CLR,CLR,0.00,WeatherDisplay:10.36,2013-11-29 10:09:00,
2013-11-29 04:15:00,21.7,9.2,30.50,NE,46,0.0,0.0,58,0.00,CLR,CLR,0.00,WeatherDisplay:10.36,2013-11-29 10:15:00,
2013-11-29 04:20:00,22.1,10.3,30.50,NE,46,2.7,0.0,60,0.00,CLR,CLR,0.00,WeatherDisplay:10.36,2013-11-29 10:20:00,
2013-11-29 04:25:00,22.3,10.9,30.50,NE,47,2.7,0.0,61,0.00,CLR,CLR,0.00,WeatherDisplay:10.36,2013-11-29 10:25:00,
2013-11-29 04:30:00,22.5,11.4,30.50,NE,45,0.0,0.0,62,0.00,CLR,CLR,0.00,WeatherDisplay:10.36,2013-11-29 10:30:00,
2013-11-29 04:35:00,22.5,11.8,30.50,NE,45,0.0,0.0,63,0.00,CLR,CLR,0.00,WeatherDisplay:10.36,2013-11-29 10:35:00,
2013-11-29 04:40:00,22.5,11.8,30.50,NE,46,0.0,0.0,63,0.00,CLR,CLR,0.00,WeatherDisplay:10.36,2013-11-29 10:40:00,
2013-11-29 04:45:00,22.1,11.4,30.50,NE,45,0.0,0.0,63,0.00,CLR,CLR,0.00,WeatherDisplay:10.36,2013-11-29 10:45:00,
2013-11-29 04:50:00,21.9,11.2,30.50,NE,46,0.0,0.0,63,0.00,CLR,CLR,0.00,WeatherDisplay:10.36,2013-11-29 10:50:00,
2013-11-29 04:55:00,21.7,11.1,30.50,NE,46,0.0,0.0,63,0.00,CLR,CLR,0.00,WeatherDisplay:10.36,2013-11-29 10:55:00,
2013-11-29 05:00:00,21.6,10.9,30.50,NE,46,0.0,0.0,63,0.00,CLR,CLR,0.00,WeatherDisplay:10.36,2013-11-29 11:00:00,
2013-11-29 05:05:00,21.4,10.7,30.50,NE,46,0.0,0.0,63,0.00,CLR,CLR,0.00,WeatherDisplay:10.36,2013-11-29 11:05:00,
2013-11-29 05:10:00,21.4,10.7,30.50,NE,46,0.0,0.0,63,0.00,CLR,CLR,0.00,WeatherDisplay:10.36,2013-11-29 11:10:00,
2013-11-29 05:15:00,21.2,10.6,30.50,NE,46,0.0,0.0,63,0.00,CLR,CLR,0.00,WeatherDisplay:10.36,2013-11-29 11:15:00,
2013-11-29 05:20:00,21.2,10.6,30.50,NE,46,0.0,0.0,63,0.00,CLR,CLR,0.00,WeatherDisplay:10.36,2013-11-29 11:20:00,
2013-11-29 05:25:00,21.0,10.4,30.50,NE,46,0.0,0.0,63,0.00,CLR,CLR,0.00,WeatherDisplay:10.36,2013-11-29 11:25:00,
2013-11-29 05:30:00,21.0,10.4,30.50,NE,46,0.0,0.0,63,0.00,CLR,CLR,0.00,WeatherDisplay:10.36,2013-11-29 11:30:00,
2013-11-29 05:35:00,20.8,10.2,30.50,NE,45,0.0,0.0,63,0.00,CLR,CLR,0.00,WeatherDisplay:10.36,2013-11-29 11:35:00,
2013-11-29 05:40:00,20.8,10.2,30.50,NE,45,0.0,0.0,63,0.00,CLR,CLR,0.00,WeatherDisplay:10.36,2013-11-29 11:40:00,
2013-11-29 05:45:00,20.8,10.2,30.50,NE,45,0.0,0.0,63,0.00,CLR,CLR,0.00,WeatherDisplay:10.36,2013-11-29 11:45:00,
2013-11-29 05:50:00,20.8,10.2,30.50,NE,45,0.0,0.0,63,0.00,CLR,CLR,0.00,WeatherDisplay:10.36,2013-11-29 11:50:00,
2013-11-29 05:55:00,20.8,10.2,30.50,NE,46,0.0,0.0,63,0.00,CLR,CLR,0.00,WeatherDisplay:10.36,2013-11-29 11:55:00,
2013-11-29 06:00:00,20.8,10.2,30.50,NE,46,0.0,0.0,63,0.00,CLR,CLR,0.00,WeatherDisplay:10.36,2013-11-29 12:00:00,
2013-11-29 06:05:00,21.0,10.4,30.50,NE,45,0.0,0.0,63,0.00,CLR,CLR,0.00,WeatherDisplay:10.36,2013-11-29 12:05:00,
2013-11-29 06:10:00,21.2,10.9,30.50,NE,45,3.6,0.0,64,0.00,CLR,CLR,0.00,WeatherDisplay:10.36,2013-11-29 12:10:00,
2013-11-29 06:15:00,21.4,11.1,30.50,NE,45,0.0,0.0,64,0.00,CLR,CLR,0.00,WeatherDisplay:10.36,2013-11-29 12:15:00,
2013-11-29 06:20:00,21.4,11.1,30.50,NE,46,0.0,0.0,64,0.00,CLR,CLR,0.00,WeatherDisplay:10.36,2013-11-29 12:20:00,
2013-11-29 06:25:00,21.2,10.9,30.50,NE,46,0.0,0.0,64,0.00,CLR,CLR,0.00,WeatherDisplay:10.36,2013-11-29 12:25:00,
2013-11-29 06:30:00,20.8,10.6,30.50,NE,46,0.0,0.0,64,0.00,CLR,CLR,0.00,WeatherDisplay:10.36,2013-11-29 12:30:00,
2013-11-29 06:35:00,20.7,10.4,30.50,NE,46,0.0,0.0,64,0.00,CLR,CLR,0.00,WeatherDisplay:10.36,2013-11-29 12:35:00,
2013-11-29 06:40:00,20.7,10.4,30.50,NE,47,0.0,0.0,64,0.00,CLR,CLR,0.00,WeatherDisplay:10.36,2013-11-29 12:40:00,
2013-11-29 06:45:00,20.7,10.7,30.50,NE,45,0.0,0.0,65,0.00,CLR,CLR,0.00,WeatherDisplay:10.36,2013-11-29 12:45:00,
2013-11-29 06:50:00,20.7,10.7,31.33,North,351,3.5,0.0,65,0.00,CLR,CLR,0.00,WeatherDisplay:10.36,2013-11-29 12:50:00,
2013-11-29 06:55:00,20.8,11.3,31.33,North,351,0.0,0.0,66,0.00,CLR,CLR,0.00,WeatherDisplay:10.36,2013-11-29 12:55:00,
2013-11-29 07:00:00,21.0,11.4,31.33,North,351,0.0,0.0,66,0.00,CLR,CLR,0.00,WeatherDisplay:10.36,2013-11-29 13:00:00,
2013-11-29 07:05:00,21.0,11.4,31.33,North,351,0.0,0.0,66,0.00,CLR,CLR,0.00,WeatherDisplay:10.36,2013-11-29 13:05:00,
2013-11-29 07:10:00,21.0,11.4,31.33,North,351,0.0,0.0,66,0.00,CLR,CLR,0.00,WeatherDisplay:10.36,2013-11-29 13:10:00,
2013-11-29 07:15:00,21.2,11.6,31.33,North,351,0.0,0.0,66,0.00,CLR,CLR,0.00,WeatherDisplay:10.36,2013-11-29 13:15:00,
2013-11-29 07:20:00,21.0,11.4,31.33,North,351,0.0,0.0,66,0.00,CLR,CLR,0.00,WeatherDisplay:10.36,2013-11-29 13:20:00,
2013-11-29 07:25:00,21.0,11.8,31.33,North,351,2.7,0.0,67,0.00,CLR,CLR,0.00,WeatherDisplay:10.36,2013-11-29 13:25:00,
2013-11-29 07:30:00,21.2,11.9,31.33,North,351,0.0,0.0,67,0.00,CLR,CLR,0.00,WeatherDisplay:10.36,2013-11-29 13:30:00,
2013-11-29 07:35:00,21.4,12.5,31.33,North,351,0.0,0.0,68,0.00,CLR,CLR,0.00,WeatherDisplay:10.36,2013-11-29 13:35:00,
2013-11-29 07:40:00,21.4,12.5,31.33,North,351,0.0,0.0,68,0.00,CLR,CLR,0.00,WeatherDisplay:10.36,2013-11-29 13:40:00,
2013-11-29 07:45:00,21.6,12.6,31.33,North,351,0.0,0.0,68,0.00,CLR,CLR,0.00,WeatherDisplay:10.36,2013-11-29 13:45:00,
2013-11-29 07:50:00,21.7,12.8,31.33,North,351,0.0,0.0,68,0.00,CLR,CLR,0.00,WeatherDisplay:10.36,2013-11-29 13:50:00,
2013-11-29 07:55:00,21.9,13.0,31.33,North,351,0.0,0.0,68,0.00,CLR,CLR,0.00,WeatherDisplay:10.36,2013-11-29 13:55:00,
2013-11-29 08:00:00,22.1,13.5,31.33,North,351,0.0,0.0,69,0.00,CLR,CLR,0.00,WeatherDisplay:10.36,2013-11-29 14:00:00,
2013-11-29 08:05:00,22.1,13.1,31.33,North,351,0.0,0.0,68,0.00,CLR,CLR,0.00,WeatherDisplay:10.36,2013-11-29 14:05:00,
2013-11-29 08:10:00,22.5,13.8,31.33,North,351,0.0,0.0,69,0.00,CLR,CLR,0.00,WeatherDisplay:10.36,2013-11-29 14:10:00,
2013-11-29 08:15:00,22.8,14.2,31.33,NNE,27,0.0,0.0,69,0.00,CLR,CLR,0.00,WeatherDisplay:10.36,2013-11-29 14:15:00,
2013-11-29 08:20:00,23.4,15.0,30.53,NNE,27,0.0,0.0,70,0.00,CLR,CLR,0.00,WeatherDisplay:10.36,2013-11-29 14:20:00,
2013-11-29 08:25:00,23.7,15.4,30.53,NNE,30,5.8,5.8,70,0.00,CLR,CLR,0.00,WeatherDisplay:10.36,2013-11-29 14:25:00,
2013-11-29 08:30:00,24.1,15.7,30.53,NNE,28,5.8,5.8,70,0.00,CLR,CLR,0.00,WeatherDisplay:10.36,2013-11-29 14:30:00,
2013-11-29 08:35:00,24.1,15.7,30.53,NNE,27,0.0,3.6,70,0.00,CLR,CLR,0.00,WeatherDisplay:10.36,2013-11-29 14:35:00,
2013-11-29 08:40:00,24.4,16.4,30.53,NNE,29,0.0,0.0,71,0.00,CLR,CLR,0.00,WeatherDisplay:10.36,2013-11-29 14:40:00,
2013-11-29 08:45:00,24.8,16.7,30.53,NNE,29,0.0,2.7,71,0.00,CLR,CLR,0.00,WeatherDisplay:10.36,2013-11-29 14:45:00,
2013-11-29 08:50:00,25.3,17.2,30.53,NNE,27,3.6,0.0,71,0.00,CLR,CLR,0.00,WeatherDisplay:10.36,2013-11-29 14:50:00,
2013-11-29 08:55:00,25.9,17.8,30.53,NNE,31,0.0,0.0,71,0.00,CLR,CLR,0.00,WeatherDisplay:10.36,2013-11-29 14:55:00,
2013-11-29 09:00:00,26.2,18.1,30.53,NNE,32,0.0,0.0,71,0.00,CLR,CLR,0.00,WeatherDisplay:10.36,2013-11-29 15:00:00,
2013-11-29 09:05:00,26.6,18.1,30.53,NNE,27,0.0,0.0,70,0.00,CLR,CLR,0.00,WeatherDisplay:10.36,2013-11-29 15:05:00,
2013-11-29 09:10:00,26.4,16.9,30.53,NNE,32,0.0,0.0,67,0.00,CLR,CLR,0.00,WeatherDisplay:10.36,2013-11-29 15:10:00,
2013-11-29 09:15:00,26.4,16.6,30.53,NNE,33,0.0,0.0,66,0.00,CLR,CLR,0.00,WeatherDisplay:10.36,2013-11-29 15:15:00,
2013-11-29 09:21:00,26.8,16.2,30.53,NNE,30,0.0,0.0,64,0.00,CLR,CLR,0.00,WeatherDisplay:10.36,2013-11-29 15:21:00,
2013-11-29 09:26:00,27.1,16.6,30.53,NE,35,0.0,0.0,64,0.00,CLR,CLR,0.00,WeatherDisplay:10.36,2013-11-29 15:26:00,
2013-11-29 09:31:00,27.9,16.9,30.53,NE,42,0.0,0.0,63,0.00,CLR,CLR,0.00,WeatherDisplay:10.36,2013-11-29 15:31:00,
2013-11-29 09:36:00,28.4,17.0,30.53,NNE,29,0.0,0.0,62,0.00,CLR,CLR,0.00,WeatherDisplay:10.36,2013-11-29 15:36:00,
2013-11-29 09:41:00,28.8,17.0,30.53,NNE,30,0.0,0.0,61,0.00,CLR,CLR,0.00,WeatherDisplay:10.36,2013-11-29 15:41:00,
2013-11-29 09:46:00,29.1,17.0,30.53,NNE,29,0.0,0.0,60,0.00,CLR,CLR,0.00,WeatherDisplay:10.36,2013-11-29 15:46:00,
2013-11-29 09:51:00,29.7,17.1,30.53,NNE,29,0.0,0.0,59,0.00,CLR,CLR,0.00,WeatherDisplay:10.36,2013-11-29 15:51:00,
2013-11-29 09:56:00,30.2,17.2,30.53,NE,44,0.0,0.0,58,0.00,CLR,CLR,0.00,WeatherDisplay:10.36,2013-11-29 15:56:00,
2013-11-29 10:01:00,30.7,17.3,30.53,NNE,30,0.0,0.0,57,0.00,CLR,CLR,0.00,WeatherDisplay:10.36,2013-11-29 16:01:00,
2013-11-29 10:06:00,31.3,17.4,30.53,NNE,31,0.0,0.0,56,0.00,CLR,CLR,0.00,WeatherDisplay:10.36,2013-11-29 16:06:00,
2013-11-29 10:11:00,31.6,16.9,30.53,NNE,33,0.0,0.0,54,0.00,CLR,CLR,0.00,WeatherDisplay:10.36,2013-11-29 16:11:00,
2013-11-29 10:16:00,32.0,16.8,30.53,NNE,28,0.0,0.0,53,0.00,CLR,CLR,0.00,WeatherDisplay:10.36,2013-11-29 16:16:00,
2013-11-29 10:21:00,32.2,16.5,30.53,NNE,32,0.0,0.0,52,0.00,CLR,CLR,0.00,WeatherDisplay:10.36,2013-11-29 16:21:00,
2013-11-29 10:26:00,32.5,16.8,30.53,NNE,27,0.0,0.0,52,0.00,CLR,CLR,0.00,WeatherDisplay:10.36,2013-11-29 16:26:00,
2013-11-29 10:31:00,32.5,16.4,30.53,NNE,30,0.0,0.0,51,0.00,CLR,CLR,0.00,WeatherDisplay:10.36,2013-11-29 16:31:00,
2013-11-29 10:36:00,32.7,16.1,30.53,NNE,30,0.0,0.0,50,0.00,CLR,CLR,0.00,WeatherDisplay:10.36,2013-11-29 16:36:00,
2013-11-29 10:41:00,32.9,16.3,30.53,NNE,30,0.0,0.0,50,0.00,CLR,CLR,0.00,WeatherDisplay:10.36,2013-11-29 16:41:00,
2013-11-29 10:46:00,33.3,16.1,30.53,NE,45,0.0,0.0,49,0.00,CLR,CLR,0.00,WeatherDisplay:10.36,2013-11-29 16:46:00,
2013-11-29 10:51:00,33.6,16.5,30.53,NE,34,0.0,0.0,49,0.00,CLR,CLR,0.00,WeatherDisplay:10.36,2013-11-29 16:51:00,
2013-11-29 10:56:00,34.0,16.8,30.53,NNE,28,0.0,0.0,49,0.00,CLR,CLR,0.00,WeatherDisplay:10.36,2013-11-29 16:56:00,
2013-11-29 11:01:00,34.3,15.7,30.53,NNE,31,0.0,0.0,46,0.00,CLR,CLR,0.00,WeatherDisplay:10.36,2013-11-29 17:01:00,
2013-11-29 11:06:00,34.7,16.0,30.50,NNE,30,0.0,0.0,46,0.00,CLR,CLR,0.00,WeatherDisplay:10.36,2013-11-29 17:06:00,
2013-11-29 11:11:00,35.1,15.8,30.50,NE,43,0.0,0.0,45,0.00,CLR,CLR,0.00,WeatherDisplay:10.36,2013-11-29 17:11:00,
2013-11-29 11:16:00,35.6,16.3,30.50,NE,54,0.0,0.0,45,0.00,CLR,CLR,0.00,WeatherDisplay:10.36,2013-11-29 17:16:00,
2013-11-29 11:21:00,36.1,16.8,30.50,East,95,0.0,0.0,45,0.00,CLR,CLR,0.00,WeatherDisplay:10.36,2013-11-29 17:21:00,
2013-11-29 11:26:00,36.5,16.6,30.50,ENE,58,0.0,0.0,44,0.00,CLR,CLR,0.00,WeatherDisplay:10.36,2013-11-29 17:26:00,
2013-11-29 11:31:00,36.7,16.3,30.50,ENE,58,0.0,0.0,43,0.00,CLR,CLR,0.00,WeatherDisplay:10.36,2013-11-29 17:31:00,
2013-11-29 11:36:00,36.9,15.9,30.50,ESE,114,0.0,0.0,42,0.00,CLR,CLR,0.00,WeatherDisplay:10.36,2013-11-29 17:36:00,
2013-11-29 11:41:00,37.0,16.0,30.50,NE,39,0.0,0.0,42,0.00,CLR,CLR,0.00,WeatherDisplay:10.36,2013-11-29 17:41:00,
2013-11-29 11:46:00,37.4,16.4,30.50,NE,38,0.0,0.0,42,0.00,CLR,CLR,0.00,WeatherDisplay:10.36,2013-11-29 17:46:00,
2013-11-29 11:51:00,37.8,16.1,30.47,NE,39,0.0,0.0,41,0.00,CLR,CLR,0.00,WeatherDisplay:10.36,2013-11-29 17:51:00,
2013-11-29 11:56:00,37.9,16.3,30.47,NNE,33,0.0,0.0,41,0.00,CLR,CLR,0.00,WeatherDisplay:10.36,2013-11-29 17:56:00,
2013-11-29 12:01:00,38.1,15.9,30.47,NNE,32,0.0,0.0,40,0.00,CLR,CLR,0.00,WeatherDisplay:10.36,2013-11-29 18:01:00,
2013-11-29 12:06:00,37.9,15.7,30.47,NNE,29,0.0,0.0,40,0.00,CLR,CLR,0.00,WeatherDisplay:10.36,2013-11-29 18:06:00,
2013-11-29 12:11:00,37.8,15.6,30.47,NNE,29,0.0,0.0,40,0.00,CLR,CLR,0.00,WeatherDisplay:10.36,2013-11-29 18:11:00,
2013-11-29 12:16:00,37.8,15.6,30.47,NNE,28,0.0,0.0,40,0.00,CLR,CLR,0.00,WeatherDisplay:10.36,2013-11-29 18:16:00,
2013-11-29 12:21:00,37.9,15.7,30.47,NNE,29,0.0,0.0,40,0.00,CLR,CLR,0.00,WeatherDisplay:10.36,2013-11-29 18:21:00,
2013-11-29 12:26:00,38.1,15.9,30.47,NNE,30,0.0,0.0,40,0.00,CLR,CLR,0.00,WeatherDisplay:10.36,2013-11-29 18:26:00,
2013-11-29 12:31:00,38.5,15.6,30.47,NNE,30,0.0,0.0,39,0.00,CLR,CLR,0.00,WeatherDisplay:10.36,2013-11-29 18:31:00,
2013-11-29 12:36:00,38.7,15.8,30.47,NE,34,0.0,0.0,39,0.00,CLR,CLR,0.00,WeatherDisplay:10.36,2013-11-29 18:36:00,
2013-11-29 12:41:00,38.8,16.0,30.47,NNE,31,0.0,0.0,39,0.00,CLR,CLR,0.00,WeatherDisplay:10.36,2013-11-29 18:41:00,
2013-11-29 12:46:00,39.0,16.1,30.47,NE,45,0.0,0.0,39,0.00,CLR,CLR,0.00,WeatherDisplay:10.36,2013-11-29 18:46:00,
2013-11-29 12:51:00,39.2,16.3,30.44,East,88,0.0,0.0,39,0.00,CLR,CLR,0.00,WeatherDisplay:10.36,2013-11-29 18:51:00,
2013-11-29 12:56:00,39.4,16.4,30.44,NE,34,0.0,0.0,39,0.00,CLR,CLR,0.00,WeatherDisplay:10.36,2013-11-29 18:56:00,
2013-11-29 13:01:00,39.6,16.6,30.44,NE,34,0.0,0.0,39,0.00,CLR,CLR,0.00,WeatherDisplay:10.36,2013-11-29 19:01:00,
2013-11-29 13:06:00,39.7,16.8,30.44,North,351,0.0,0.0,39,0.00,CLR,CLR,0.00,WeatherDisplay:10.36,2013-11-29 19:06:00,
2013-11-29 13:11:00,39.7,16.8,30.44,NNE,32,0.0,0.0,39,0.00,CLR,CLR,0.00,WeatherDisplay:10.36,2013-11-29 19:11:00,
2013-11-29 13:16:00,39.7,16.2,30.44,NNE,27,0.0,0.0,38,0.00,CLR,CLR,0.00,WeatherDisplay:10.36,2013-11-29 19:16:00,
2013-11-29 13:21:00,39.7,16.2,30.44,NNE,31,0.0,0.0,38,0.00,CLR,CLR,0.00,WeatherDisplay:10.36,2013-11-29 19:21:00,
2013-11-29 13:26:00,39.7,16.2,30.44,NE,39,0.0,0.0,38,0.00,CLR,CLR,0.00,WeatherDisplay:10.36,2013-11-29 19:26:00,
2013-11-29 13:31:00,39.9,16.3,30.44,NE,40,0.0,0.0,38,0.00,CLR,CLR,0.00,WeatherDisplay:10.36,2013-11-29 19:31:00,
2013-11-29 13:36:00,40.1,16.5,30.41,NE,37,0.0,0.0,38,0.00,CLR,CLR,0.00,WeatherDisplay:10.36,2013-11-29 19:36:00,
2013-11-29 13:41:00,40.1,15.9,30.41,NNE,29,0.0,0.0,37,0.00,CLR,CLR,0.00,WeatherDisplay:10.36,2013-11-29 19:41:00,
2013-11-29 13:46:00,40.1,15.2,30.41,NNE,30,0.0,0.0,36,0.00,CLR,CLR,0.00,WeatherDisplay:10.36,2013-11-29 19:46:00,
2013-11-29 13:51:00,40.3,15.4,30.41,NNE,28,0.0,0.0,36,0.00,CLR,CLR,0.00,WeatherDisplay:10.36,2013-11-29 19:51:00,
2013-11-29 13:56:00,40.1,15.2,30.41,NE,35,0.0,0.0,36,0.00,CLR,CLR,0.00,WeatherDisplay:10.36,2013-11-29 19:56:00,
2013-11-29 14:01:00,39.9,15.1,30.41,NNE,29,0.0,0.0,36,0.00,CLR,CLR,0.00,WeatherDisplay:10.36,2013-11-29 20:01:00,
2013-11-29 14:06:00,39.9,15.7,30.41,NNE,28,0.0,0.0,37,0.00,CLR,CLR,0.00,WeatherDisplay:10.36,2013-11-29 20:06:00,
2013-11-29 14:11:00,40.1,15.9,30.41,NNE,29,0.0,0.0,37,0.00,CLR,CLR,0.00,WeatherDisplay:10.36,2013-11-29 20:11:00,
2013-11-29 14:16:00,40.3,16.7,30.41,NE,34,0.0,0.0,38,0.00,CLR,CLR,0.00,WeatherDisplay:10.36,2013-11-29 20:16:00,
2013-11-29 14:21:00,40.3,16.0,30.38,NNE,29,0.0,0.0,37,0.00,CLR,CLR,0.00,WeatherDisplay:10.36,2013-11-29 20:21:00,
2013-11-29 14:26:00,40.3,16.7,30.38,NE,36,0.0,0.0,38,0.00,CLR,CLR,0.00,WeatherDisplay:10.36,2013-11-29 20:26:00,
2013-11-29 14:31:00,40.3,16.0,30.38,NE,38,0.0,0.0,37,0.00,CLR,CLR,0.00,WeatherDisplay:10.36,2013-11-29 20:31:00,
2013-11-29 14:36:00,40.3,16.0,30.38,NNE,33,0.0,0.0,37,0.00,CLR,CLR,0.00,WeatherDisplay:10.36,2013-11-29 20:36:00,
2013-11-29 14:41:00,40.3,16.0,30.38,NNE,31,0.0,0.0,37,0.00,CLR,CLR,0.00,WeatherDisplay:10.36,2013-11-29 20:41:00,
2013-11-29 14:46:00,40.3,16.0,30.38,NNE,32,0.0,0.0,37,0.00,CLR,CLR,0.00,WeatherDisplay:10.36,2013-11-29 20:46:00,
2013-11-29 14:51:00,40.3,16.0,30.38,NNE,29,0.0,0.0,37,0.00,CLR,CLR,0.00,WeatherDisplay:10.36,2013-11-29 20:51:00,
2013-11-29 14:56:00,40.3,16.0,30.38,NE,39,0.0,0.0,37,0.00,CLR,CLR,0.00,WeatherDisplay:10.36,2013-11-29 20:56:00,
2013-11-29 15:01:00,40.5,16.2,30.38,NE,36,0.0,0.0,37,0.00,CLR,CLR,0.00,WeatherDisplay:10.36,2013-11-29 21:01:00,
2013-11-29 15:06:00,40.5,16.2,30.38,NNE,29,0.0,0.0,37,0.00,CLR,CLR,0.00,WeatherDisplay:10.36,2013-11-29 21:06:00,
2013-11-29 15:11:00,40.5,16.2,30.38,NE,47,0.0,0.0,37,0.00,CLR,CLR,0.00,WeatherDisplay:10.36,2013-11-29 21:11:00,
2013-11-29 15:16:00,40.5,16.2,30.38,NE,42,0.0,0.0,37,0.00,CLR,CLR,0.00,WeatherDisplay:10.36,2013-11-29 21:16:00,
2013-11-29 15:21:00,40.5,16.2,30.38,NE,36,0.0,0.0,37,0.00,CLR,CLR,0.00,WeatherDisplay:10.36,2013-11-29 21:21:00,
2013-11-29 15:26:00,40.5,16.2,30.38,NNE,31,0.0,0.0,37,0.00,CLR,CLR,0.00,WeatherDisplay:10.36,2013-11-29 21:26:00,
2013-11-29 15:31:00,40.5,16.2,30.38,NNE,29,0.0,0.0,37,0.00,CLR,CLR,0.00,WeatherDisplay:10.36,2013-11-29 21:31:00,
2013-11-29 15:36:00,40.3,16.0,30.35,NNE,30,0.0,0.0,37,0.00,CLR,CLR,0.00,WeatherDisplay:10.36,2013-11-29 21:36:00,
2013-11-29 15:41:00,40.3,16.0,30.35,NNE,29,0.0,0.0,37,0.00,CLR,CLR,0.00,WeatherDisplay:10.36,2013-11-29 21:41:00,
2013-11-29 15:46:00,40.3,16.0,30.35,NNE,32,0.0,0.0,37,0.00,CLR,CLR,0.00,WeatherDisplay:10.36,2013-11-29 21:46:00,
2013-11-29 15:51:00,40.1,16.5,30.35,NNE,29,0.0,0.0,38,0.00,CLR,CLR,0.00,WeatherDisplay:10.36,2013-11-29 21:51:00,
2013-11-29 15:56:00,40.1,16.5,30.35,NNE,31,0.0,0.0,38,0.00,CLR,CLR,0.00,WeatherDisplay:10.36,2013-11-29 21:56:00,
2013-11-29 16:01:00,39.9,16.3,30.35,NNE,31,0.0,0.0,38,0.00,CLR,CLR,0.00,WeatherDisplay:10.36,2013-11-29 22:01:00,
2013-11-29 16:06:00,39.9,16.3,30.35,NNE,32,0.0,0.0,38,0.00,CLR,CLR,0.00,WeatherDisplay:10.36,2013-11-29 22:06:00,
2013-11-29 16:11:00,39.9,16.3,30.35,NNE,28,0.0,0.0,38,0.00,CLR,CLR,0.00,WeatherDisplay:10.36,2013-11-29 22:11:00,
2013-11-29 16:16:00,39.9,16.3,30.35,NNE,32,0.0,0.0,38,0.00,CLR,CLR,0.00,WeatherDisplay:10.36,2013-11-29 22:16:00,
2013-11-29 16:21:00,39.7,16.2,30.35,NNE,30,0.0,0.0,38,0.00,CLR,CLR,0.00,WeatherDisplay:10.36,2013-11-29 22:21:00,
2013-11-29 16:26:00,39.7,16.8,30.35,NE,45,0.0,0.0,39,0.00,CLR,CLR,0.00,WeatherDisplay:10.36,2013-11-29 22:26:00,
2013-11-29 16:31:00,39.6,16.6,30.35,NE,34,0.0,0.0,39,0.00,CLR,CLR,0.00,WeatherDisplay:10.36,2013-11-29 22:31:00,
2013-11-29 16:36:00,39.4,16.4,30.35,NNE,28,0.0,0.0,39,0.00,CLR,CLR,0.00,WeatherDisplay:10.36,2013-11-29 22:36:00,
2013-11-29 16:41:00,39.4,16.4,30.35,NE,39,0.0,0.0,39,0.00,CLR,CLR,0.00,WeatherDisplay:10.36,2013-11-29 22:41:00,
2013-11-29 16:46:00,39.2,16.3,30.35,NE,53,0.0,0.0,39,0.00,CLR,CLR,0.00,WeatherDisplay:10.36,2013-11-29 22:46:00,
2013-11-29 16:51:00,39.2,16.3,30.35,NE,40,0.0,0.0,39,0.00,CLR,CLR,0.00,WeatherDisplay:10.36,2013-11-29 22:51:00,
2013-11-29 16:56:00,39.0,16.1,30.35,NE,36,0.0,0.0,39,0.00,CLR,CLR,0.00,WeatherDisplay:10.36,2013-11-29 22:56:00,
2013-11-29 17:01:00,38.8,16.0,30.35,NE,34,0.0,0.0,39,0.00,CLR,CLR,0.00,WeatherDisplay:10.36,2013-11-29 23:01:00,
2013-11-29 17:06:00,38.8,16.0,30.35,NE,34,0.0,0.0,39,0.00,CLR,CLR,0.00,WeatherDisplay:10.36,2013-11-29 23:06:00,
2013-11-29 17:11:00,38.8,16.0,30.35,NE,39,0.0,0.0,39,0.00,CLR,CLR,0.00,WeatherDisplay:10.36,2013-11-29 23:11:00,
2013-11-29 17:16:00,38.7,15.8,30.35,NE,37,0.0,0.0,39,0.00,CLR,CLR,0.00,WeatherDisplay:10.36,2013-11-29 23:16:00,
2013-11-29 17:21:00,38.7,15.8,30.32,NE,39,0.0,0.0,39,0.00,CLR,CLR,0.00,WeatherDisplay:10.36,2013-11-29 23:21:00,
2013-11-29 17:26:00,38.7,15.8,30.32,NE,39,0.0,0.0,39,0.00,CLR,CLR,0.00,WeatherDisplay:10.36,2013-11-29 23:26:00,
2013-11-29 17:31:00,38.7,15.8,30.32,NE,53,0.0,0.0,39,0.00,CLR,CLR,0.00,WeatherDisplay:10.36,2013-11-29 23:31:00,
2013-11-29 17:36:00,38.7,15.8,30.32,NE,40,0.0,0.0,39,0.00,CLR,CLR,0.00,WeatherDisplay:10.36,2013-11-29 23:36:00,
2013-11-29 17:41:00,38.8,16.0,30.32,NNE,31,0.0,0.0,39,0.00,CLR,CLR,0.00,WeatherDisplay:10.36,2013-11-29 23:41:00,
2013-11-29 17:46:00,38.8,16.0,30.32,NE,37,0.0,0.0,39,0.00,CLR,CLR,0.00,WeatherDisplay:10.36,2013-11-29 23:46:00,
2013-11-29 17:51:00,38.8,16.0,30.32,NE,35,0.0,0.0,39,0.00,CLR,CLR,0.00,WeatherDisplay:10.36,2013-11-29 23:51:00,
2013-11-29 17:56:00,38.8,16.0,30.32,NE,47,0.0,0.0,39,0.00,CLR,CLR,0.00,WeatherDisplay:10.36,2013-11-29 23:56:00,
2013-11-29 18:01:00,38.8,16.0,30.32,NNE,31,0.0,0.0,39,0.00,CLR,CLR,0.00,WeatherDisplay:10.36,2013-11-30 00:01:00,
2013-11-29 18:06:00,38.8,16.0,30.32,NE,45,0.0,0.0,39,0.00,CLR,CLR,0.00,WeatherDisplay:10.36,2013-11-30 00:06:00,
2013-11-29 18:11:00,38.8,16.0,30.32,NE,54,0.0,0.0,39,0.00,CLR,CLR,0.00,WeatherDisplay:10.36,2013-11-30 00:11:00,
2013-11-29 18:16:00,38.7,15.8,30.32,NE,41,0.0,0.0,39,0.00,CLR,CLR,0.00,WeatherDisplay:10.36,2013-11-30 00:16:00,
2013-11-29 18:21:00,38.5,15.6,30.32,NE,50,0.0,0.0,39,0.00,CLR,CLR,0.00,WeatherDisplay:10.36,2013-11-30 00:21:00,
2013-11-29 18:26:00,38.3,15.5,30.32,NE,35,0.0,0.0,39,0.00,CLR,CLR,0.00,WeatherDisplay:10.36,2013-11-30 00:26:00,
2013-11-29 18:31:00,38.1,15.9,30.32,NNE,33,0.0,0.0,40,0.00,CLR,CLR,0.00,WeatherDisplay:10.36,2013-11-30 00:31:00,
2013-11-29 18:36:00,38.1,15.9,30.32,NE,37,0.0,0.0,40,0.00,CLR,CLR,0.00,WeatherDisplay:10.36,2013-11-30 00:36:00,
2013-11-29 18:41:00,38.1,15.9,30.32,NE,37,0.0,0.0,40,0.00,CLR,CLR,0.00,WeatherDisplay:10.36,2013-11-30 00:41:00,
2013-11-29 18:46:00,38.1,15.9,30.32,NE,37,0.0,0.0,40,0.00,CLR,CLR,0.00,WeatherDisplay:10.36,2013-11-30 00:46:00,
2013-11-29 18:51:00,38.1,16.5,30.32,NE,37,0.0,0.0,41,0.00,CLR,CLR,0.00,WeatherDisplay:10.36,2013-11-30 00:51:00,
2013-11-29 18:56:00,38.1,16.5,30.32,NE,38,0.0,0.0,41,0.00,CLR,CLR,0.00,WeatherDisplay:10.36,2013-11-30 00:56:00,
2013-11-29 19:01:00,37.9,16.3,30.32,NE,38,0.0,0.0,41,0.00,CLR,CLR,0.00,WeatherDisplay:10.36,2013-11-30 01:01:00,
2013-11-29 19:06:00,37.8,16.1,30.35,NE,50,0.0,0.0,41,0.00,CLR,CLR,0.00,WeatherDisplay:10.36,2013-11-30 01:06:00,
2013-11-29 19:11:00,37.4,15.8,30.35,NNE,33,0.0,0.0,41,0.00,CLR,CLR,0.00,WeatherDisplay:10.36,2013-11-30 01:11:00,
2013-11-29 19:16:00,37.0,15.5,30.35,NNE,33,0.0,0.0,41,0.00,CLR,CLR,0.00,WeatherDisplay:10.36,2013-11-30 01:16:00,
2013-11-29 19:21:00,36.7,15.2,30.32,NNE,32,0.0,0.0,41,0.00,CLR,CLR,0.00,WeatherDisplay:10.36,2013-11-30 01:21:00,
2013-11-29 19:26:00,36.1,15.8,30.32,NNE,28,0.0,0.0,43,0.00,CLR,CLR,0.00,WeatherDisplay:10.36,2013-11-30 01:26:00,
2013-11-29 19:31:00,35.8,15.4,30.32,NNE,27,0.0,0.0,43,0.00,CLR,CLR,0.00,WeatherDisplay:10.36,2013-11-30 01:31:00,
2013-11-29 19:36:00,35.6,15.8,30.32,NNE,27,0.0,0.0,44,0.00,CLR,CLR,0.00,WeatherDisplay:10.36,2013-11-30 01:36:00,
2013-11-29 19:41:00,35.4,16.2,30.32,NNE,28,0.0,0.0,45,0.00,CLR,CLR,0.00,WeatherDisplay:10.36,2013-11-30 01:41:00,
2013-11-29 19:46:00,35.2,16.0,30.32,NNE,28,0.0,0.0,45,0.00,CLR,CLR,0.00,WeatherDisplay:10.36,2013-11-30 01:46:00,
2013-11-29 19:51:00,35.1,16.3,30.32,NNE,28,0.0,0.0,46,0.00,CLR,CLR,0.00,WeatherDisplay:10.36,2013-11-30 01:51:00,
2013-11-29 19:56:00,35.1,16.3,30.32,NNE,28,0.0,0.0,46,0.00,CLR,CLR,0.00,WeatherDisplay:10.36,2013-11-30 01:56:00,
2013-11-29 20:01:00,34.9,16.2,30.32,NNE,28,0.0,0.0,46,0.00,CLR,CLR,0.00,WeatherDisplay:10.36,2013-11-30 02:01:00,
2013-11-29 20:06:00,34.7,16.5,30.32,NNE,28,0.0,0.0,47,0.00,CLR,CLR,0.00,WeatherDisplay:10.36,2013-11-30 02:06:00,
2013-11-29 20:11:00,34.5,16.3,30.32,NNE,28,0.0,0.0,47,0.00,CLR,CLR,0.00,WeatherDisplay:10.36,2013-11-30 02:11:00,
2013-11-29 20:16:00,34.5,16.8,30.32,NNE,28,0.0,0.0,48,0.00,CLR,CLR,0.00,WeatherDisplay:10.36,2013-11-30 02:16:00,
2013-11-29 20:21:00,34.5,16.8,30.32,NNE,28,0.0,0.0,48,0.00,CLR,CLR,0.00,WeatherDisplay:10.36,2013-11-30 02:21:00,
2013-11-29 20:26:00,34.3,17.1,30.32,NNE,28,0.0,0.0,49,0.00,CLR,CLR,0.00,WeatherDisplay:10.36,2013-11-30 02:26:00,
2013-11-29 20:31:00,34.3,17.6,30.32,NNE,28,0.0,0.0,50,0.00,CLR,CLR,0.00,WeatherDisplay:10.36,2013-11-30 02:31:00,
2013-11-29 20:36:00,34.2,17.4,30.32,NNE,28,0.0,0.0,50,0.00,CLR,CLR,0.00,WeatherDisplay:10.36,2013-11-30 02:36:00,
2013-11-29 20:41:00,34.0,17.3,30.32,NNE,28,0.0,0.0,50,0.00,CLR,CLR,0.00,WeatherDisplay:10.36,2013-11-30 02:41:00,
2013-11-29 20:46:00,34.0,17.3,30.32,NNE,28,0.0,0.0,50,0.00,CLR,CLR,0.00,WeatherDisplay:10.36,2013-11-30 02:46:00,
2013-11-29 20:51:00,34.0,17.3,30.32,NNE,28,0.0,0.0,50,0.00,CLR,CLR,0.00,WeatherDisplay:10.36,2013-11-30 02:51:00,
2013-11-29 20:56:00,34.0,17.3,30.32,NNE,28,0.0,0.0,50,0.00,CLR,CLR,0.00,WeatherDisplay:10.36,2013-11-30 02:56:00,
2013-11-29 21:01:00,34.0,17.7,30.32,NNE,28,0.0,0.0,51,0.00,CLR,CLR,0.00,WeatherDisplay:10.36,2013-11-30 03:01:00,
2013-11-29 21:06:00,34.0,17.7,30.32,NNE,28,0.0,0.0,51,0.00,CLR,CLR,0.00,WeatherDisplay:10.36,2013-11-30 03:06:00,
2013-11-29 21:11:00,34.0,17.7,30.32,NNE,28,0.0,0.0,51,0.00,CLR,CLR,0.00,WeatherDisplay:10.36,2013-11-30 03:11:00,
2013-11-29 21:16:00,34.0,17.7,30.32,NNE,28,0.0,0.0,51,0.00,CLR,CLR,0.00,WeatherDisplay:10.36,2013-11-30 03:16:00,
2013-11-29 21:21:00,34.2,17.9,30.32,NNE,28,0.0,0.0,51,0.00,CLR,CLR,0.00,WeatherDisplay:10.36,2013-11-30 03:21:00,
2013-11-29 21:26:00,34.0,17.7,30.32,NNE,28,0.0,0.0,51,0.00,CLR,CLR,0.00,WeatherDisplay:10.36,2013-11-30 03:26:00,
2013-11-29 21:31:00,34.0,17.7,30.32,NNE,28,0.0,0.0,51,0.00,CLR,CLR,0.00,WeatherDisplay:10.36,2013-11-30 03:31:00,
2013-11-29 21:36:00,33.8,17.6,30.29,NNE,28,0.0,0.0,51,0.00,CLR,CLR,0.00,WeatherDisplay:10.36,2013-11-30 03:36:00,
2013-11-29 21:41:00,33.8,17.6,30.29,NNE,28,0.0,0.0,51,0.00,CLR,CLR,0.00,WeatherDisplay:10.36,2013-11-30 03:41:00,
2013-11-29 21:46:00,33.8,17.6,30.29,NE,35,0.0,0.0,51,0.00,CLR,CLR,0.00,WeatherDisplay:10.36,2013-11-30 03:46:00,
2013-11-29 21:51:00,33.8,18.0,30.29,NNE,32,0.0,0.0,52,0.00,CLR,CLR,0.00,WeatherDisplay:10.36,2013-11-30 03:51:00,
2013-11-29 21:56:00,33.8,18.0,30.29,NNE,30,0.0,0.0,52,0.00,CLR,CLR,0.00,WeatherDisplay:10.36,2013-11-30 03:56:00,
2013-11-29 22:01:00,33.8,18.0,30.29,NNE,30,0.0,0.0,52,0.00,CLR,CLR,0.00,WeatherDisplay:10.36,2013-11-30 04:01:00,
2013-11-29 22:06:00,33.8,18.0,30.29,NE,37,0.0,0.0,52,0.00,CLR,CLR,0.00,WeatherDisplay:10.36,2013-11-30 04:06:00,
2013-11-29 22:11:00,33.8,18.5,30.29,NE,44,0.0,0.0,53,0.00,CLR,CLR,0.00,WeatherDisplay:10.36,2013-11-30 04:11:00,
2013-11-29 22:16:00,33.8,18.5,30.29,NNE,31,0.0,0.0,53,0.00,CLR,CLR,0.00,WeatherDisplay:10.36,2013-11-30 04:16:00,
2013-11-29 22:21:00,33.8,18.5,30.29,NNE,31,0.0,0.0,53,0.00,CLR,CLR,0.00,WeatherDisplay:10.36,2013-11-30 04:21:00,
2013-11-29 22:26:00,33.8,18.5,30.29,NNE,31,0.0,0.0,53,0.00,CLR,CLR,0.00,WeatherDisplay:10.36,2013-11-30 04:26:00,
2013-11-29 22:31:00,33.8,18.9,30.29,NNE,31,0.0,0.0,54,0.00,CLR,CLR,0.00,WeatherDisplay:10.36,2013-11-30 04:31:00,
2013-11-29 22:36:00,33.8,18.9,30.29,NNE,31,0.0,0.0,54,0.00,CLR,CLR,0.00,WeatherDisplay:10.36,2013-11-30 04:36:00,
2013-11-29 22:41:00,33.8,18.9,30.29,NNE,31,0.0,0.0,54,0.00,CLR,CLR,0.00,WeatherDisplay:10.36,2013-11-30 04:41:00,
2013-11-29 22:46:00,33.8,19.3,30.29,NNE,31,0.0,0.0,55,0.00,CLR,CLR,0.00,WeatherDisplay:10.36,2013-11-30 04:46:00,
2013-11-29 22:51:00,33.8,19.3,30.29,NNE,29,0.0,0.0,55,0.00,CLR,CLR,0.00,WeatherDisplay:10.36,2013-11-30 04:51:00,
2013-11-29 22:56:00,34.0,19.9,30.29,NNE,29,0.0,0.0,56,0.00,CLR,CLR,0.00,WeatherDisplay:10.36,2013-11-30 04:56:00,
2013-11-29 23:01:00,34.2,20.5,30.29,NNE,29,0.0,0.0,57,0.00,CLR,CLR,0.00,WeatherDisplay:10.36,2013-11-30 05:01:00,
2013-11-29 23:03:00,34.2,20.5,30.29,NNE,29,0.0,0.0,57,0.00,CLR,CLR,0.00,WeatherDisplay:10.36,2013-11-30 05:03:00,
2013-11-29 23:05:00,34.2,20.1,30.29,NNE,29,0.0,0.0,56,0.00,CLR,CLR,0.00,WeatherDisplay:10.36,2013-11-30 05:05:00,
2013-11-29 23:06:00,34.2,20.1,30.29,NNE,29,0.0,0.0,56,0.00,CLR,CLR,0.00,WeatherDisplay:10.36,2013-11-30 05:06:00,
2013-11-29 23:11:00,34.0,19.9,30.29,NNE,29,0.0,0.0,56,0.00,CLR,CLR,0.00,WeatherDisplay:10.36,2013-11-30 05:11:00,
2013-11-29 23:16:00,34.0,19.9,30.29,NNE,29,0.0,0.0,56,0.00,CLR,CLR,0.00,WeatherDisplay:10.36,2013-11-30 05:16:00,
2013-11-29 23:18:00,34.0,19.9,30.29,NNE,29,0.0,0.0,56,0.00,CLR,CLR,0.00,WeatherDisplay:10.36,2013-11-30 05:18:00,
2013-11-29 23:23:00,34.0,19.9,30.29,NNE,29,0.0,0.0,56,0.00,CLR,CLR,0.00,WeatherDisplay:10.36,2013-11-30 05:23:00,
2013-11-29 23:28:00,34.2,20.1,30.29,NNE,29,0.0,0.0,56,0.00,CLR,CLR,0.00,WeatherDisplay:10.36,2013-11-30 05:28:00,
2013-11-29 23:33:00,34.2,20.1,30.29,NNE,31,0.0,0.0,56,0.00,CLR,CLR,0.00,WeatherDisplay:10.36,2013-11-30 05:33:00,
2013-11-29 23:38:00,34.3,20.3,30.29,NNE,31,0.0,0.0,56,0.00,CLR,CLR,0.00,WeatherDisplay:10.36,2013-11-30 05:38:00,
2013-11-29 23:43:00,34.3,20.3,30.29,NE,41,0.0,0.0,56,0.00,CLR,CLR,0.00,WeatherDisplay:10.36,2013-11-30 05:43:00,
2013-11-29 23:48:00,34.3,20.3,30.29,NE,42,0.0,0.0,56,0.00,CLR,CLR,0.00,WeatherDisplay:10.36,2013-11-30 05:48:00,
2013-11-29 23:53:00,34.3,20.3,30.29,NE,47,0.0,0.0,56,0.00,CLR,CLR,0.00,WeatherDisplay:10.36,2013-11-30 05:53:00,
2013-11-29 23:58:00,34.3,19.8,30.29,NE,50,0.0,0.0,55,0.00,CLR,CLR,0.00,WeatherDisplay:10.36,2013-11-30 05:58:00,